createdAt,value
2019-02-22T00:03:48.359Z,101117.81
2019-02-22T00:08:54.093Z,101117.25
2019-02-22T00:14:03.610Z,101128.47
2019-02-22T00:19:08.763Z,101128.22
2019-02-22T00:24:14.498Z,101132.48
2019-02-22T00:29:26.204Z,101133.31
2019-02-22T00:34:34.202Z,101141.61
2019-02-22T00:39:42.882Z,101151.91
2019-02-22T00:44:54.413Z,101148.89
2019-02-22T00:50:00.035Z,101150.11
2019-02-22T00:55:08.157Z,101150.36
2019-02-22T01:00:14.241Z,101146.76
2019-02-22T01:05:19.949Z,101135.39
2019-02-22T01:10:31.100Z,101135.91
2019-02-22T01:15:32.969Z,101144.36
2019-02-22T01:20:39.395Z,101152.37
2019-02-22T01:25:44.946Z,101156.11
2019-02-22T01:30:50.058Z,101160.35
2019-02-22T01:35:55.223Z,101162.95
2019-02-22T01:41:03.053Z,101170.62
2019-02-22T01:46:08.553Z,101168.00
2019-02-22T01:51:13.639Z,101175.40
2019-02-22T01:56:18.775Z,101181.34
2019-02-22T02:01:25.608Z,101182.73
2019-02-22T02:06:31.423Z,101192.80
2019-02-22T02:11:37.575Z,101202.28
2019-02-22T02:16:42.736Z,101212.45
2019-02-22T02:21:47.793Z,101217.44
2019-02-22T02:26:52.849Z,101221.67
2019-02-22T02:31:58.175Z,101230.77
2019-02-22T02:37:03.185Z,101234.94
2019-02-22T02:42:08.222Z,101241.63
2019-02-22T02:47:13.225Z,101236.07
2019-02-22T02:52:18.265Z,101242.16
2019-02-22T02:57:24.193Z,101248.32
2019-02-22T03:02:31.067Z,101256.25
2019-02-22T03:07:43.467Z,101265.67
2019-02-22T03:12:48.787Z,101267.81
2019-02-22T03:17:53.807Z,101275.75
2019-02-22T03:22:59.238Z,101287.12
2019-02-22T03:28:04.692Z,101287.43
2019-02-22T03:33:19.786Z,101304.67
2019-02-22T03:38:25.052Z,101308.59
2019-02-22T03:43:30.088Z,101307.30
2019-02-22T03:48:35.047Z,101305.34
2019-02-22T03:54:00.983Z,101307.73
2019-02-22T03:59:06.507Z,101320.97
2019-02-22T04:04:11.588Z,101332.40
2019-02-22T04:09:17.109Z,101333.70
2019-02-22T04:14:30.460Z,101342.16
2019-02-22T04:19:35.448Z,101352.13
2019-02-22T04:24:40.831Z,101366.67
2019-02-22T04:29:45.886Z,101375.02
2019-02-22T04:34:51.041Z,101373.36
2019-02-22T04:39:57.242Z,101390.52
2019-02-22T04:45:02.267Z,101389.95
2019-02-22T04:50:08.656Z,101397.82
2019-02-22T04:55:14.523Z,101404.41
2019-02-22T05:00:19.540Z,101408.67
2019-02-22T05:05:24.750Z,101412.10
2019-02-22T05:10:30.012Z,101417.32
2019-02-22T05:15:35.102Z,101430.53
2019-02-22T05:20:40.939Z,101431.52
2019-02-22T05:25:46.095Z,101447.56
2019-02-22T05:30:51.227Z,101443.16
2019-02-22T05:35:56.638Z,101449.98
2019-02-22T05:41:01.756Z,101460.64
2019-02-22T05:46:06.881Z,101462.75
2019-02-22T05:51:13.689Z,101471.77
2019-02-22T05:56:18.839Z,101479.19
2019-02-22T06:01:24.031Z,101492.67
2019-02-22T06:06:35.599Z,101508.83
2019-02-22T06:11:40.960Z,101512.51
2019-02-22T06:16:46.103Z,101530.81
2019-02-22T06:21:51.389Z,101533.75
2019-02-22T06:26:57.375Z,101541.22
2019-02-22T06:32:03.051Z,101547.20
2019-02-22T06:37:08.595Z,101562.76
2019-02-22T06:42:13.640Z,101573.06
2019-02-22T06:47:18.645Z,101591.08
2019-02-22T06:52:25.445Z,101600.89
2019-02-22T06:57:30.587Z,101605.02
2019-02-22T07:02:36.284Z,101611.88
2019-02-22T07:07:42.493Z,101614.67
2019-02-22T07:12:56.997Z,101626.41
2019-02-22T07:18:02.709Z,101636.77
2019-02-22T07:23:08.943Z,101646.57
2019-02-22T07:28:15.498Z,101658.26
2019-02-22T07:33:31.917Z,101663.31
2019-02-22T07:38:37.048Z,101677.89
2019-02-22T07:43:43.727Z,101691.48
2019-02-22T07:48:49.079Z,101708.66
2019-02-22T07:53:54.461Z,101721.25
2019-02-22T07:59:03.111Z,101727.88
2019-02-22T08:04:08.501Z,101730.72
2019-02-22T08:09:24.188Z,101738.37
2019-02-22T08:14:29.471Z,101753.73
2019-02-22T08:19:34.865Z,101776.75
2019-02-22T08:24:43.479Z,101781.93
2019-02-22T08:29:49.433Z,101799.27
2019-02-22T08:34:56.533Z,101808.24
2019-02-22T08:40:02.995Z,101821.30
2019-02-22T08:45:24.292Z,101824.17
2019-02-22T08:50:32.301Z,101845.45
2019-02-22T08:55:39.210Z,101868.27
2019-02-22T09:00:50.151Z,101872.29
2019-02-22T09:06:08.171Z,101878.86
2019-02-22T09:11:13.702Z,101890.17
2019-02-22T09:16:19.535Z,101911.43
2019-02-22T09:21:29.436Z,101915.80
2019-02-22T09:26:38.848Z,101928.94
2019-02-22T09:31:52.978Z,101932.27
2019-02-22T09:36:59.651Z,101951.53
2019-02-22T09:42:04.786Z,101949.12
2019-02-22T09:47:11.808Z,101969.52
2019-02-22T09:52:17.551Z,101974.92
2019-02-22T09:57:24.386Z,101992.28
2019-02-22T10:02:30.249Z,101994.55
2019-02-22T10:07:35.693Z,102007.36
2019-02-22T10:12:40.841Z,102018.37
2019-02-22T10:17:46.349Z,102026.31
2019-02-22T10:22:51.784Z,102041.45
2019-02-22T10:28:18.091Z,102040.80
2019-02-22T10:33:24.481Z,102056.52
2019-02-22T10:38:36.142Z,102056.78
2019-02-22T10:43:44.301Z,102070.27
2019-02-22T10:48:51.990Z,102084.92
2019-02-22T10:53:57.957Z,102092.87
2019-02-22T10:59:03.118Z,102104.41
2019-02-22T11:04:08.236Z,102105.96
2019-02-22T11:09:14.738Z,102117.36
2019-02-22T11:14:28.930Z,102119.95
2019-02-22T11:19:29.168Z,102129.84
2019-02-22T11:24:34.273Z,102136.64
2019-02-22T11:29:39.808Z,102153.44
2019-02-22T11:34:45.470Z,102166.03
2019-02-22T11:39:50.886Z,102183.81
2019-02-22T11:44:58.301Z,102196.03
2019-02-22T11:50:04.486Z,102193.59
2019-02-22T11:55:15.458Z,102198.69
2019-02-22T12:00:22.268Z,102202.27
2019-02-22T12:05:27.536Z,102208.97
2019-02-22T12:10:33.332Z,102220.55
2019-02-22T12:15:39.009Z,102224.13
2019-02-22T12:20:44.112Z,102235.08
2019-02-22T12:25:49.390Z,102237.52
2019-02-22T12:30:54.421Z,102248.39
2019-02-22T12:36:00.139Z,102259.75
2019-02-22T12:41:05.577Z,102265.23
2019-02-22T12:46:11.254Z,102268.26
2019-02-22T12:51:16.371Z,102274.05
2019-02-22T12:56:48.575Z,102278.48
2019-02-22T13:01:30.076Z,102290.37
2019-02-22T13:06:35.571Z,102300.48
2019-02-22T13:11:40.736Z,102308.13
2019-02-22T13:16:46.132Z,102321.91
2019-02-22T13:21:51.368Z,102330.82
2019-02-22T13:26:56.474Z,102344.66
2019-02-22T13:32:02.920Z,102353.63
2019-02-22T13:37:08.293Z,102350.70
2019-02-22T13:42:13.380Z,102367.89
2019-02-22T13:47:18.941Z,102385.78
2019-02-22T13:52:25.802Z,102386.46
2019-02-22T13:57:32.025Z,102392.77
2019-02-22T14:02:37.825Z,102399.79
2019-02-22T14:07:55.710Z,102409.30
2019-02-22T14:13:01.887Z,102416.22
2019-02-22T14:18:07.292Z,102418.36
2019-02-22T14:23:13.996Z,102424.19
2019-02-22T14:28:21.617Z,102436.33
2019-02-22T14:33:26.794Z,102440.83
2019-02-22T14:38:32.322Z,102444.50
2019-02-22T14:43:37.535Z,102449.77
2019-02-22T14:48:42.762Z,102456.78
2019-02-22T14:53:47.824Z,102460.93
2019-02-22T14:58:52.881Z,102457.66
2019-02-22T15:03:57.977Z,102465.13
2019-02-22T15:09:04.772Z,102457.66
2019-02-22T15:14:18.120Z,102454.03
2019-02-22T15:19:23.671Z,102467.77
2019-02-22T15:24:37.362Z,102474.28
2019-02-22T15:29:45.860Z,102485.02
2019-02-22T15:34:51.218Z,102496.86
2019-02-22T15:39:56.515Z,102503.06
2019-02-22T15:45:04.663Z,102508.02
2019-02-22T15:50:13.491Z,102514.44
2019-02-22T15:55:18.887Z,102520.88
2019-02-22T16:00:25.837Z,102515.03
2019-02-22T16:05:33.976Z,102516.22
2019-02-22T16:10:39.191Z,102529.52
2019-02-22T16:15:44.781Z,102526.56
2019-02-22T16:20:50.243Z,102538.98
2019-02-22T16:25:55.344Z,102559.34
2019-02-22T16:31:00.486Z,102558.80
2019-02-22T16:36:05.614Z,102561.45
2019-02-22T16:41:10.906Z,102559.67
2019-02-22T16:46:16.633Z,102561.77
2019-02-22T16:51:21.932Z,102567.62
2019-02-22T16:56:27.112Z,102570.91
2019-02-22T17:01:33.123Z,102577.29
2019-02-22T17:06:55.779Z,102575.38
2019-02-22T17:12:06.422Z,102585.70
2019-02-22T17:17:08.500Z,102583.65
2019-02-22T17:22:13.882Z,102583.52
2019-02-22T17:27:20.204Z,102593.84
2019-02-22T17:32:25.576Z,102597.66
2019-02-22T17:37:30.754Z,102608.50
2019-02-22T17:42:36.942Z,102617.99
2019-02-22T17:47:44.958Z,102636.37
2019-02-22T17:52:50.932Z,102653.19
2019-02-22T17:57:57.042Z,102660.75
2019-02-22T18:03:05.649Z,102657.13
2019-02-22T18:08:11.907Z,102642.84
2019-02-22T18:13:17.279Z,102638.72
2019-02-22T18:18:23.391Z,102647.13
2019-02-22T18:23:29.087Z,102642.44
2019-02-22T18:28:36.036Z,102651.35
2019-02-22T18:33:41.651Z,102669.44
2019-02-22T18:38:47.792Z,102678.69
2019-02-22T18:43:53.034Z,102685.48
2019-02-22T18:48:58.860Z,102690.89
2019-02-22T18:54:04.028Z,102692.63
2019-02-22T18:59:10.341Z,102694.20
2019-02-22T19:04:15.532Z,102682.12
2019-02-22T19:09:20.984Z,102698.45
2019-02-22T19:14:26.272Z,102711.45
2019-02-22T19:19:31.848Z,102705.23
2019-02-22T19:24:40.366Z,102695.70
2019-02-22T19:29:45.822Z,102689.39
2019-02-22T19:34:53.731Z,102687.74
2019-02-22T19:39:59.291Z,102701.72
2019-02-22T19:45:05.575Z,102695.83
2019-02-22T19:50:12.643Z,102706.70
2019-02-22T19:55:22.227Z,102714.44
2019-02-22T20:00:28.003Z,102714.46
2019-02-22T20:05:33.532Z,102706.91
2019-02-22T20:10:40.964Z,102702.61
2019-02-22T20:15:46.993Z,102701.48
2019-02-22T20:20:52.952Z,102708.84
2019-02-22T20:26:17.748Z,102716.52
2019-02-22T20:31:23.866Z,102726.05
2019-02-22T20:36:29.167Z,102741.48
2019-02-22T20:41:34.436Z,102747.40
2019-02-22T20:46:44.270Z,102756.12
2019-02-22T20:51:49.996Z,102767.00
2019-02-22T20:57:29.185Z,102769.65
2019-02-22T21:02:34.511Z,102774.91
2019-02-22T21:07:39.615Z,102761.16
2019-02-22T21:12:44.770Z,102763.16
2019-02-22T21:17:50.492Z,102766.91
2019-02-22T21:22:55.908Z,102761.80
2019-02-22T21:28:01.103Z,102773.11
2019-02-22T21:33:10.936Z,102767.88
2019-02-22T21:38:22.441Z,102777.08
2019-02-22T21:43:29.651Z,102776.47
2019-02-22T21:48:34.945Z,102775.83
2019-02-22T21:53:40.928Z,102789.96
2019-02-22T21:58:48.611Z,102794.91
2019-02-22T22:03:54.048Z,102791.31
2019-02-22T22:08:59.700Z,102795.73
2019-02-22T22:14:07.546Z,102793.77
2019-02-22T22:19:14.270Z,102804.92
2019-02-22T22:24:19.884Z,102819.52
2019-02-22T22:29:25.179Z,102822.66
2019-02-22T22:34:30.836Z,102821.98
2019-02-22T22:39:36.414Z,102828.07
2019-02-22T22:44:42.061Z,102830.19
2019-02-22T22:49:48.008Z,102842.00
2019-02-22T22:54:54.094Z,102851.31
2019-02-22T22:59:59.766Z,102852.63
2019-02-22T23:05:05.056Z,102856.41
2019-02-22T23:10:12.444Z,102858.52
2019-02-22T23:15:17.714Z,102864.91
2019-02-22T23:20:23.434Z,102863.42
2019-02-22T23:25:28.686Z,102861.94
2019-02-22T23:30:34.865Z,102863.08
2019-02-22T23:35:40.078Z,102864.39
2019-02-22T23:40:45.217Z,102858.64
2019-02-22T23:45:50.399Z,102849.47
2019-02-22T23:51:01.085Z,102854.88
2019-02-22T23:56:10.931Z,102855.52
